sensor_id;sensor_type;location;lat;lon;timestamp;P1;durP1;ratioP1;P2;durP2;ratioP2
37383;SDS011;23258;49.718;11.082;2023-04-25T00:01:40;3.28;;;3.08;;
37383;SDS011;23258;49.718;11.082;2023-04-25T00:04:10;3.00;;;2.80;;
37383;SDS011;23258;49.718;11.082;2023-04-25T00:06:43;3.20;;;3.00;;
37383;SDS011;23258;49.718;11.082;2023-04-25T00:09:13;3.58;;;3.28;;
37383;SDS011;23258;49.718;11.082;2023-04-25T00:11:43;3.15;;;2.85;;
37383;SDS011;23258;49.718;11.082;2023-04-25T00:14:12;2.78;;;2.65;;
37383;SDS011;23258;49.718;11.082;2023-04-25T00:16:43;3.63;;;3.22;;
37383;SDS011;23258;49.718;11.082;2023-04-25T00:19:13;3.20;;;2.85;;
37383;SDS011;23258;49.718;11.082;2023-04-25T00:21:45;3.40;;;3.10;;
37383;SDS011;23258;49.718;11.082;2023-04-25T00:24:15;3.70;;;3.38;;
37383;SDS011;23258;49.718;11.082;2023-04-25T00:26:44;3.63;;;3.35;;
37383;SDS011;23258;49.718;11.082;2023-04-25T00:29:14;3.67;;;3.03;;
37383;SDS011;23258;49.718;11.082;2023-04-25T00:31:44;3.88;;;3.50;;
37383;SDS011;23258;49.718;11.082;2023-04-25T00:34:13;3.70;;;3.40;;
37383;SDS011;23258;49.718;11.082;2023-04-25T00:36:46;4.07;;;3.22;;
37383;SDS011;23258;49.718;11.082;2023-04-25T00:39:16;2.40;;;2.30;;
37383;SDS011;23258;49.718;11.082;2023-04-25T00:41:46;4.20;;;2.90;;
37383;SDS011;23258;49.718;11.082;2023-04-25T00:44:19;3.13;;;2.92;;
37383;SDS011;23258;49.718;11.082;2023-04-25T00:46:49;3.45;;;3.15;;
37383;SDS011;23258;49.718;11.082;2023-04-25T00:49:19;3.30;;;3.03;;
37383;SDS011;23258;49.718;11.082;2023-04-25T00:51:51;3.03;;;2.83;;
37383;SDS011;23258;49.718;11.082;2023-04-25T00:54:21;3.40;;;3.10;;
37383;SDS011;23258;49.718;11.082;2023-04-25T00:56:52;3.50;;;3.20;;
37383;SDS011;23258;49.718;11.082;2023-04-25T00:59:22;3.42;;;3.13;;
37383;SDS011;23258;49.718;11.082;2023-04-25T01:01:51;3.67;;;3.33;;
37383;SDS011;23258;49.718;11.082;2023-04-25T01:04:21;3.63;;;3.33;;
37383;SDS011;23258;49.718;11.082;2023-04-25T01:06:54;3.40;;;3.10;;
37383;SDS011;23258;49.718;11.082;2023-04-25T01:09:24;2.80;;;2.60;;
37383;SDS011;23258;49.718;11.082;2023-04-25T01:11:53;3.50;;;3.20;;
37383;SDS011;23258;49.718;11.082;2023-04-25T01:14:24;3.78;;;3.30;;
37383;SDS011;23258;49.718;11.082;2023-04-25T01:16:53;2.85;;;2.65;;
37383;SDS011;23258;49.718;11.082;2023-04-25T01:19:23;3.45;;;3.20;;
37383;SDS011;23258;49.718;11.082;2023-04-25T01:21:56;5.05;;;3.63;;
37383;SDS011;23258;49.718;11.082;2023-04-25T01:24:27;3.03;;;2.83;;
37383;SDS011;23258;49.718;11.082;2023-04-25T01:26:57;3.25;;;2.72;;
37383;SDS011;23258;49.718;11.082;2023-04-25T01:29:28;3.40;;;3.10;;
37383;SDS011;23258;49.718;11.082;2023-04-25T01:31:58;2.65;;;2.45;;
37383;SDS011;23258;49.718;11.082;2023-04-25T01:34:28;3.85;;;3.50;;
37383;SDS011;23258;49.718;11.082;2023-04-25T01:37:01;3.08;;;2.85;;
37383;SDS011;23258;49.718;11.082;2023-04-25T01:39:31;2.33;;;2.20;;
37383;SDS011;23258;49.718;11.082;2023-04-25T01:42:01;3.38;;;2.90;;
37383;SDS011;23258;49.718;11.082;2023-04-25T01:44:31;3.47;;;2.80;;
37383;SDS011;23258;49.718;11.082;2023-04-25T01:47:00;3.30;;;3.10;;
37383;SDS011;23258;49.718;11.082;2023-04-25T01:49:30;2.30;;;2.20;;
37383;SDS011;23258;49.718;11.082;2023-04-25T01:52:02;3.65;;;3.33;;
37383;SDS011;23258;49.718;11.082;2023-04-25T01:54:32;3.00;;;2.78;;
37383;SDS011;23258;49.718;11.082;2023-04-25T01:57:02;3.20;;;2.90;;
37383;SDS011;23258;49.718;11.082;2023-04-25T01:59:34;5.35;;;2.97;;
37383;SDS011;23258;49.718;11.082;2023-04-25T02:02:11;2.95;;;2.63;;
37383;SDS011;23258;49.718;11.082;2023-04-25T02:04:42;4.97;;;3.13;;
37383;SDS011;23258;49.718;11.082;2023-04-25T02:07:15;3.28;;;2.97;;
37383;SDS011;23258;49.718;11.082;2023-04-25T02:09:51;3.53;;;3.22;;
37383;SDS011;23258;49.718;11.082;2023-04-25T02:12:22;3.50;;;3.20;;
37383;SDS011;23258;49.718;11.082;2023-04-25T02:14:53;2.75;;;2.55;;
37383;SDS011;23258;49.718;11.082;2023-04-25T02:17:35;3.30;;;3.08;;
37383;SDS011;23258;49.718;11.082;2023-04-25T02:20:06;2.53;;;2.33;;
37383;SDS011;23258;49.718;11.082;2023-04-25T02:22:41;2.78;;;2.58;;
37383;SDS011;23258;49.718;11.082;2023-04-25T02:25:11;2.88;;;2.60;;
37383;SDS011;23258;49.718;11.082;2023-04-25T02:27:42;2.90;;;2.67;;
37383;SDS011;23258;49.718;11.082;2023-04-25T02:30:12;3.10;;;2.78;;
37383;SDS011;23258;49.718;11.082;2023-04-25T02:32:42;2.85;;;2.65;;
37383;SDS011;23258;49.718;11.082;2023-04-25T02:35:12;3.60;;;3.08;;
37383;SDS011;23258;49.718;11.082;2023-04-25T02:37:44;2.78;;;2.58;;
37383;SDS011;23258;49.718;11.082;2023-04-25T02:40:14;3.58;;;3.28;;
37383;SDS011;23258;49.718;11.082;2023-04-25T02:42:44;2.90;;;2.70;;
37383;SDS011;23258;49.718;11.082;2023-04-25T02:45:14;3.35;;;2.97;;
37383;SDS011;23258;49.718;11.082;2023-04-25T02:47:43;2.78;;;2.58;;
37383;SDS011;23258;49.718;11.082;2023-04-25T02:50:13;3.38;;;3.08;;
37383;SDS011;23258;49.718;11.082;2023-04-25T02:52:46;2.95;;;2.75;;
37383;SDS011;23258;49.718;11.082;2023-04-25T02:55:21;2.67;;;2.47;;
37383;SDS011;23258;49.718;11.082;2023-04-25T02:57:54;3.30;;;3.00;;
37383;SDS011;23258;49.718;11.082;2023-04-25T03:00:39;3.60;;;3.20;;
37383;SDS011;23258;49.718;11.082;2023-04-25T03:03:09;3.17;;;2.88;;
37383;SDS011;23258;49.718;11.082;2023-04-25T03:05:38;3.35;;;3.05;;
37383;SDS011;23258;49.718;11.082;2023-04-25T03:08:11;3.20;;;3.00;;
37383;SDS011;23258;49.718;11.082;2023-04-25T03:10:42;2.80;;;2.60;;
37383;SDS011;23258;49.718;11.082;2023-04-25T03:13:14;3.33;;;3.03;;
37383;SDS011;23258;49.718;11.082;2023-04-25T03:15:44;4.10;;;2.92;;
37383;SDS011;23258;49.718;11.082;2023-04-25T03:18:13;3.60;;;3.10;;
37383;SDS011;23258;49.718;11.082;2023-04-25T03:20:43;3.45;;;3.15;;
37383;SDS011;23258;49.718;11.082;2023-04-25T03:23:16;3.28;;;2.97;;
37383;SDS011;23258;49.718;11.082;2023-04-25T03:25:45;3.20;;;2.95;;
37383;SDS011;23258;49.718;11.082;2023-04-25T03:28:15;3.05;;;2.85;;
37383;SDS011;23258;49.718;11.082;2023-04-25T03:30:45;4.47;;;3.85;;
37383;SDS011;23258;49.718;11.082;2023-04-25T03:33:14;3.72;;;3.30;;
37383;SDS011;23258;49.718;11.082;2023-04-25T03:35:44;3.55;;;3.25;;
37383;SDS011;23258;49.718;11.082;2023-04-25T03:38:17;3.65;;;3.35;;
37383;SDS011;23258;49.718;11.082;2023-04-25T03:40:46;4.53;;;3.78;;
37383;SDS011;23258;49.718;11.082;2023-04-25T03:43:25;3.35;;;3.15;;
37383;SDS011;23258;49.718;11.082;2023-04-25T03:46:00;3.65;;;3.20;;
37383;SDS011;23258;49.718;11.082;2023-04-25T03:48:31;3.72;;;3.42;;
37383;SDS011;23258;49.718;11.082;2023-04-25T03:51:01;5.00;;;3.53;;
37383;SDS011;23258;49.718;11.082;2023-04-25T03:53:35;6.45;;;3.55;;
37383;SDS011;23258;49.718;11.082;2023-04-25T03:56:14;3.70;;;3.40;;
37383;SDS011;23258;49.718;11.082;2023-04-25T03:58:45;3.95;;;3.65;;
37383;SDS011;23258;49.718;11.082;2023-04-25T04:01:17;3.92;;;3.60;;
37383;SDS011;23258;49.718;11.082;2023-04-25T04:03:47;4.30;;;3.90;;
37383;SDS011;23258;49.718;11.082;2023-04-25T04:06:17;4.05;;;3.63;;
37383;SDS011;23258;49.718;11.082;2023-04-25T04:08:55;3.95;;;3.40;;
37383;SDS011;23258;49.718;11.082;2023-04-25T04:11:25;4.53;;;3.60;;
37383;SDS011;23258;49.718;11.082;2023-04-25T04:13:55;5.07;;;3.67;;
37383;SDS011;23258;49.718;11.082;2023-04-25T04:16:25;4.47;;;3.92;;
37383;SDS011;23258;49.718;11.082;2023-04-25T04:18:55;4.13;;;3.72;;
37383;SDS011;23258;49.718;11.082;2023-04-25T04:21:24;4.60;;;3.63;;
37383;SDS011;23258;49.718;11.082;2023-04-25T04:23:57;6.85;;;4.22;;
37383;SDS011;23258;49.718;11.082;2023-04-25T04:26:31;4.22;;;3.83;;
37383;SDS011;23258;49.718;11.082;2023-04-25T04:29:21;4.28;;;3.95;;
37383;SDS011;23258;49.718;11.082;2023-04-25T04:32:01;4.70;;;4.22;;
37383;SDS011;23258;49.718;11.082;2023-04-25T04:34:32;6.53;;;4.32;;
37383;SDS011;23258;49.718;11.082;2023-04-25T04:37:02;4.35;;;3.95;;
37383;SDS011;23258;49.718;11.082;2023-04-25T04:39:35;4.55;;;4.15;;
37383;SDS011;23258;49.718;11.082;2023-04-25T04:42:18;4.45;;;4.05;;
37383;SDS011;23258;49.718;11.082;2023-04-25T04:45:08;4.43;;;4.03;;
37383;SDS011;23258;49.718;11.082;2023-04-25T04:47:49;4.53;;;4.13;;
37383;SDS011;23258;49.718;11.082;2023-04-25T04:50:45;3.85;;;3.55;;
37383;SDS011;23258;49.718;11.082;2023-04-25T04:53:22;4.32;;;3.97;;
37383;SDS011;23258;49.718;11.082;2023-04-25T04:56:15;4.60;;;4.18;;
37383;SDS011;23258;49.718;11.082;2023-04-25T04:59:13;4.97;;;4.07;;
37383;SDS011;23258;49.718;11.082;2023-04-25T05:02:12;4.90;;;4.40;;
37383;SDS011;23258;49.718;11.082;2023-04-25T05:04:48;4.45;;;4.05;;
37383;SDS011;23258;49.718;11.082;2023-04-25T05:07:38;3.67;;;3.25;;
37383;SDS011;23258;49.718;11.082;2023-04-25T05:10:28;3.83;;;3.50;;
37383;SDS011;23258;49.718;11.082;2023-04-25T05:13:24;4.97;;;3.78;;
37383;SDS011;23258;49.718;11.082;2023-04-25T05:16:14;3.92;;;3.63;;
37383;SDS011;23258;49.718;11.082;2023-04-25T05:19:12;5.22;;;3.22;;
37383;SDS011;23258;49.718;11.082;2023-04-25T05:21:49;3.83;;;3.53;;
37383;SDS011;23258;49.718;11.082;2023-04-25T05:24:38;3.33;;;3.13;;
37383;SDS011;23258;49.718;11.082;2023-04-25T05:27:25;4.28;;;3.88;;
37383;SDS011;23258;49.718;11.082;2023-04-25T05:30:18;3.78;;;3.47;;
37383;SDS011;23258;49.718;11.082;2023-04-25T05:32:58;4.13;;;3.33;;
37383;SDS011;23258;49.718;11.082;2023-04-25T05:35:28;3.38;;;3.05;;
37383;SDS011;23258;49.718;11.082;2023-04-25T05:37:59;4.70;;;3.75;;
37383;SDS011;23258;49.718;11.082;2023-04-25T05:40:58;3.65;;;3.35;;
37383;SDS011;23258;49.718;11.082;2023-04-25T05:43:57;3.75;;;3.45;;
37383;SDS011;23258;49.718;11.082;2023-04-25T05:46:39;3.63;;;3.33;;
37383;SDS011;23258;49.718;11.082;2023-04-25T05:49:12;3.58;;;3.28;;
37383;SDS011;23258;49.718;11.082;2023-04-25T05:52:03;3.90;;;3.60;;
37383;SDS011;23258;49.718;11.082;2023-04-25T05:54:42;3.33;;;3.00;;
37383;SDS011;23258;49.718;11.082;2023-04-25T05:57:18;4.47;;;4.07;;
37383;SDS011;23258;49.718;11.082;2023-04-25T05:59:48;3.95;;;3.50;;
37383;SDS011;23258;49.718;11.082;2023-04-25T06:02:21;4.03;;;3.63;;
37383;SDS011;23258;49.718;11.082;2023-04-25T06:04:52;3.80;;;3.47;;
37383;SDS011;23258;49.718;11.082;2023-04-25T06:07:22;3.85;;;3.55;;
37383;SDS011;23258;49.718;11.082;2023-04-25T06:09:52;3.80;;;3.50;;
37383;SDS011;23258;49.718;11.082;2023-04-25T06:12:21;4.53;;;4.07;;
37383;SDS011;23258;49.718;11.082;2023-04-25T06:14:51;3.20;;;2.97;;
37383;SDS011;23258;49.718;11.082;2023-04-25T06:17:24;3.78;;;3.55;;
37383;SDS011;23258;49.718;11.082;2023-04-25T06:19:54;4.75;;;3.95;;
37383;SDS011;23258;49.718;11.082;2023-04-25T06:22:23;4.13;;;3.75;;
37383;SDS011;23258;49.718;11.082;2023-04-25T06:24:53;4.70;;;4.30;;
37383;SDS011;23258;49.718;11.082;2023-04-25T06:27:26;5.38;;;4.47;;
37383;SDS011;23258;49.718;11.082;2023-04-25T06:29:56;4.85;;;4.45;;
37383;SDS011;23258;49.718;11.082;2023-04-25T06:32:28;4.18;;;3.83;;
37383;SDS011;23258;49.718;11.082;2023-04-25T06:34:59;5.50;;;4.68;;
37383;SDS011;23258;49.718;11.082;2023-04-25T06:37:30;5.07;;;4.57;;
37383;SDS011;23258;49.718;11.082;2023-04-25T06:40:00;4.78;;;4.32;;
37383;SDS011;23258;49.718;11.082;2023-04-25T06:42:30;5.15;;;4.65;;
37383;SDS011;23258;49.718;11.082;2023-04-25T06:45:20;5.75;;;4.80;;
37383;SDS011;23258;49.718;11.082;2023-04-25T06:47:54;5.18;;;4.72;;
37383;SDS011;23258;49.718;11.082;2023-04-25T06:50:24;4.65;;;4.20;;
37383;SDS011;23258;49.718;11.082;2023-04-25T06:52:54;5.57;;;4.90;;
37383;SDS011;23258;49.718;11.082;2023-04-25T06:55:24;5.25;;;4.75;;
37383;SDS011;23258;49.718;11.082;2023-04-25T06:58:09;5.53;;;4.85;;
37383;SDS011;23258;49.718;11.082;2023-04-25T07:00:48;5.15;;;4.60;;
37383;SDS011;23258;49.718;11.082;2023-04-25T07:03:23;5.30;;;4.78;;
37383;SDS011;23258;49.718;11.082;2023-04-25T07:06:00;5.82;;;5.32;;
37383;SDS011;23258;49.718;11.082;2023-04-25T07:08:30;6.13;;;5.43;;
37383;SDS011;23258;49.718;11.082;2023-04-25T07:11:00;4.95;;;4.55;;
37383;SDS011;23258;49.718;11.082;2023-04-25T07:13:30;5.65;;;5.15;;
37383;SDS011;23258;49.718;11.082;2023-04-25T07:15:59;5.68;;;5.05;;
37383;SDS011;23258;49.718;11.082;2023-04-25T07:18:34;6.43;;;5.40;;
37383;SDS011;23258;49.718;11.082;2023-04-25T07:21:04;5.30;;;4.82;;
37383;SDS011;23258;49.718;11.082;2023-04-25T07:23:35;5.57;;;5.05;;
37383;SDS011;23258;49.718;11.082;2023-04-25T07:26:12;6.22;;;5.70;;
37383;SDS011;23258;49.718;11.082;2023-04-25T07:29:02;5.38;;;4.90;;
37383;SDS011;23258;49.718;11.082;2023-04-25T07:31:31;5.25;;;4.75;;
37383;SDS011;23258;49.718;11.082;2023-04-25T07:34:04;5.38;;;4.68;;
37383;SDS011;23258;49.718;11.082;2023-04-25T07:36:35;5.53;;;5.03;;
37383;SDS011;23258;49.718;11.082;2023-04-25T07:39:04;6.40;;;5.72;;
37383;SDS011;23258;49.718;11.082;2023-04-25T07:41:35;5.25;;;4.85;;
37383;SDS011;23258;49.718;11.082;2023-04-25T07:44:07;5.47;;;4.72;;
37383;SDS011;23258;49.718;11.082;2023-04-25T07:46:37;6.43;;;4.38;;
37383;SDS011;23258;49.718;11.082;2023-04-25T07:49:10;4.50;;;4.20;;
37383;SDS011;23258;49.718;11.082;2023-04-25T07:51:43;5.13;;;4.20;;
37383;SDS011;23258;49.718;11.082;2023-04-25T07:54:16;5.15;;;3.80;;
37383;SDS011;23258;49.718;11.082;2023-04-25T07:56:52;4.00;;;3.55;;
37383;SDS011;23258;49.718;11.082;2023-04-25T07:59:26;3.10;;;2.90;;
37383;SDS011;23258;49.718;11.082;2023-04-25T08:01:59;4.05;;;3.60;;
37383;SDS011;23258;49.718;11.082;2023-04-25T08:04:32;3.28;;;3.08;;
37383;SDS011;23258;49.718;11.082;2023-04-25T08:07:05;3.45;;;3.15;;
37383;SDS011;23258;49.718;11.082;2023-04-25T08:09:51;4.10;;;3.78;;
37383;SDS011;23258;49.718;11.082;2023-04-25T08:12:31;2.65;;;2.55;;
37383;SDS011;23258;49.718;11.082;2023-04-25T08:15:01;3.53;;;3.10;;
37383;SDS011;23258;49.718;11.082;2023-04-25T08:17:34;3.47;;;2.67;;
37383;SDS011;23258;49.718;11.082;2023-04-25T08:20:07;3.63;;;2.70;;
37383;SDS011;23258;49.718;11.082;2023-04-25T08:22:38;3.55;;;3.10;;
37383;SDS011;23258;49.718;11.082;2023-04-25T08:25:22;3.47;;;2.53;;
37383;SDS011;23258;49.718;11.082;2023-04-25T08:27:52;2.53;;;2.30;;
37383;SDS011;23258;49.718;11.082;2023-04-25T08:30:22;2.70;;;2.50;;
37383;SDS011;23258;49.718;11.082;2023-04-25T08:32:53;4.03;;;2.30;;
37383;SDS011;23258;49.718;11.082;2023-04-25T08:35:45;2.38;;;2.17;;
37383;SDS011;23258;49.718;11.082;2023-04-25T08:38:15;2.78;;;2.40;;
37383;SDS011;23258;49.718;11.082;2023-04-25T08:40:46;2.85;;;2.65;;
37383;SDS011;23258;49.718;11.082;2023-04-25T08:43:19;2.13;;;1.85;;
37383;SDS011;23258;49.718;11.082;2023-04-25T08:45:49;2.53;;;2.03;;
37383;SDS011;23258;49.718;11.082;2023-04-25T08:48:33;2.60;;;1.10;;
37383;SDS011;23258;49.718;11.082;2023-04-25T08:51:06;1.65;;;1.55;;
37383;SDS011;23258;49.718;11.082;2023-04-25T08:53:38;1.48;;;1.42;;
37383;SDS011;23258;49.718;11.082;2023-04-25T08:56:09;2.70;;;1.98;;
37383;SDS011;23258;49.718;11.082;2023-04-25T08:58:41;2.58;;;1.77;;
37383;SDS011;23258;49.718;11.082;2023-04-25T09:01:12;1.58;;;1.45;;
37383;SDS011;23258;49.718;11.082;2023-04-25T09:03:47;1.85;;;1.75;;
37383;SDS011;23258;49.718;11.082;2023-04-25T09:06:20;1.85;;;1.75;;
37383;SDS011;23258;49.718;11.082;2023-04-25T09:08:50;2.55;;;1.63;;
37383;SDS011;23258;49.718;11.082;2023-04-25T09:11:20;1.88;;;1.15;;
37383;SDS011;23258;49.718;11.082;2023-04-25T09:13:52;1.60;;;1.00;;
37383;SDS011;23258;49.718;11.082;2023-04-25T09:16:57;1.95;;;1.33;;
37383;SDS011;23258;49.718;11.082;2023-04-25T09:19:38;1.75;;;1.65;;
37383;SDS011;23258;49.718;11.082;2023-04-25T09:22:27;1.48;;;1.45;;
37383;SDS011;23258;49.718;11.082;2023-04-25T09:24:57;1.58;;;1.48;;
37383;SDS011;23258;49.718;11.082;2023-04-25T09:27:31;2.08;;;1.67;;
37383;SDS011;23258;49.718;11.082;2023-04-25T09:30:09;1.45;;;1.35;;
37383;SDS011;23258;49.718;11.082;2023-04-25T09:32:51;1.83;;;1.73;;
37383;SDS011;23258;49.718;11.082;2023-04-25T09:35:25;1.80;;;1.40;;
37383;SDS011;23258;49.718;11.082;2023-04-25T09:38:01;2.40;;;2.03;;
37383;SDS011;23258;49.718;11.082;2023-04-25T09:40:49;2.92;;;2.20;;
37383;SDS011;23258;49.718;11.082;2023-04-25T09:43:41;1.85;;;1.58;;
37383;SDS011;23258;49.718;11.082;2023-04-25T09:46:14;1.70;;;1.60;;
37383;SDS011;23258;49.718;11.082;2023-04-25T09:48:52;1.50;;;1.40;;
37383;SDS011;23258;49.718;11.082;2023-04-25T09:51:29;2.15;;;1.70;;
37383;SDS011;23258;49.718;11.082;2023-04-25T09:54:03;2.63;;;2.08;;
37383;SDS011;23258;49.718;11.082;2023-04-25T09:56:46;1.70;;;1.60;;
37383;SDS011;23258;49.718;11.082;2023-04-25T09:59:19;2.45;;;2.25;;
37383;SDS011;23258;49.718;11.082;2023-04-25T10:01:50;3.03;;;2.03;;
37383;SDS011;23258;49.718;11.082;2023-04-25T10:04:28;2.50;;;2.30;;
37383;SDS011;23258;49.718;11.082;2023-04-25T10:07:11;5.78;;;2.40;;
37383;SDS011;23258;49.718;11.082;2023-04-25T10:09:47;2.17;;;2.08;;
37383;SDS011;23258;49.718;11.082;2023-04-25T10:12:17;2.30;;;2.10;;
37383;SDS011;23258;49.718;11.082;2023-04-25T10:14:47;2.42;;;2.10;;
37383;SDS011;23258;49.718;11.082;2023-04-25T10:17:17;3.15;;;2.85;;
37383;SDS011;23258;49.718;11.082;2023-04-25T10:19:46;3.63;;;3.17;;
37383;SDS011;23258;49.718;11.082;2023-04-25T10:22:17;3.63;;;2.45;;
37383;SDS011;23258;49.718;11.082;2023-04-25T10:24:50;3.05;;;2.63;;
37383;SDS011;23258;49.718;11.082;2023-04-25T10:27:20;3.60;;;2.90;;
37383;SDS011;23258;49.718;11.082;2023-04-25T10:29:59;2.88;;;2.63;;
37383;SDS011;23258;49.718;11.082;2023-04-25T10:32:31;1.55;;;1.45;;
37383;SDS011;23258;49.718;11.082;2023-04-25T10:35:11;2.58;;;2.38;;
37383;SDS011;23258;49.718;11.082;2023-04-25T10:37:57;1.98;;;1.88;;
37383;SDS011;23258;49.718;11.082;2023-04-25T10:40:30;3.17;;;1.83;;
37383;SDS011;23258;49.718;11.082;2023-04-25T10:45:53;2.03;;;1.70;;
37383;SDS011;23258;49.718;11.082;2023-04-25T10:48:26;1.83;;;1.73;;
37383;SDS011;23258;49.718;11.082;2023-04-25T10:51:08;1.65;;;1.55;;
37383;SDS011;23258;49.718;11.082;2023-04-25T10:53:38;1.83;;;1.73;;
37383;SDS011;23258;49.718;11.082;2023-04-25T10:56:14;2.03;;;1.60;;
37383;SDS011;23258;49.718;11.082;2023-04-25T10:58:46;1.38;;;1.20;;
37383;SDS011;23258;49.718;11.082;2023-04-25T11:01:20;1.20;;;1.10;;
37383;SDS011;23258;49.718;11.082;2023-04-25T11:03:56;1.77;;;1.23;;
37383;SDS011;23258;49.718;11.082;2023-04-25T11:06:29;1.65;;;1.55;;
37383;SDS011;23258;49.718;11.082;2023-04-25T11:08:59;1.67;;;1.58;;
37383;SDS011;23258;49.718;11.082;2023-04-25T11:11:33;2.03;;;1.70;;
37383;SDS011;23258;49.718;11.082;2023-04-25T11:14:05;2.13;;;1.98;;
37383;SDS011;23258;49.718;11.082;2023-04-25T11:16:35;1.30;;;1.25;;
37383;SDS011;23258;49.718;11.082;2023-04-25T11:19:05;1.60;;;1.50;;
37383;SDS011;23258;49.718;11.082;2023-04-25T11:21:35;1.13;;;1.02;;
37383;SDS011;23258;49.718;11.082;2023-04-25T11:24:05;1.08;;;1.08;;
37383;SDS011;23258;49.718;11.082;2023-04-25T11:26:37;3.65;;;1.45;;
37383;SDS011;23258;49.718;11.082;2023-04-25T11:29:07;1.42;;;1.33;;
37383;SDS011;23258;49.718;11.082;2023-04-25T11:31:37;0.90;;;0.90;;
37383;SDS011;23258;49.718;11.082;2023-04-25T11:34:08;0.75;;;0.75;;
37383;SDS011;23258;49.718;11.082;2023-04-25T11:36:38;1.13;;;1.13;;
37383;SDS011;23258;49.718;11.082;2023-04-25T11:39:08;1.05;;;1.02;;
37383;SDS011;23258;49.718;11.082;2023-04-25T11:41:40;0.98;;;0.98;;
37383;SDS011;23258;49.718;11.082;2023-04-25T11:44:11;0.90;;;0.90;;
37383;SDS011;23258;49.718;11.082;2023-04-25T11:46:41;1.05;;;1.05;;
37383;SDS011;23258;49.718;11.082;2023-04-25T11:49:11;0.75;;;0.75;;
37383;SDS011;23258;49.718;11.082;2023-04-25T11:51:41;1.00;;;1.00;;
37383;SDS011;23258;49.718;11.082;2023-04-25T11:54:11;1.02;;;1.02;;
37383;SDS011;23258;49.718;11.082;2023-04-25T11:56:44;1.20;;;1.10;;
37383;SDS011;23258;49.718;11.082;2023-04-25T11:59:14;2.65;;;1.20;;
37383;SDS011;23258;49.718;11.082;2023-04-25T12:01:47;1.42;;;1.33;;
37383;SDS011;23258;49.718;11.082;2023-04-25T12:04:18;1.73;;;1.30;;
37383;SDS011;23258;49.718;11.082;2023-04-25T12:06:49;0.88;;;0.88;;
37383;SDS011;23258;49.718;11.082;2023-04-25T12:09:19;1.05;;;1.02;;
37383;SDS011;23258;49.718;11.082;2023-04-25T12:11:55;1.40;;;1.30;;
37383;SDS011;23258;49.718;11.082;2023-04-25T12:14:26;1.30;;;1.30;;
37383;SDS011;23258;49.718;11.082;2023-04-25T12:16:56;1.50;;;1.23;;
37383;SDS011;23258;49.718;11.082;2023-04-25T12:19:31;1.33;;;1.23;;
37383;SDS011;23258;49.718;11.082;2023-04-25T12:22:01;1.73;;;1.60;;
37383;SDS011;23258;49.718;11.082;2023-04-25T12:24:33;1.83;;;1.38;;
37383;SDS011;23258;49.718;11.082;2023-04-25T12:27:07;0.88;;;0.88;;
37383;SDS011;23258;49.718;11.082;2023-04-25T12:29:37;1.05;;;1.05;;
37383;SDS011;23258;49.718;11.082;2023-04-25T12:32:15;1.20;;;1.20;;
37383;SDS011;23258;49.718;11.082;2023-04-25T12:34:45;1.38;;;1.27;;
37383;SDS011;23258;49.718;11.082;2023-04-25T12:37:15;1.20;;;1.10;;
37383;SDS011;23258;49.718;11.082;2023-04-25T12:39:44;1.33;;;1.33;;
37383;SDS011;23258;49.718;11.082;2023-04-25T12:42:17;1.58;;;1.48;;
37383;SDS011;23258;49.718;11.082;2023-04-25T12:44:47;2.72;;;1.40;;
37383;SDS011;23258;49.718;11.082;2023-04-25T12:47:16;1.50;;;1.40;;
37383;SDS011;23258;49.718;11.082;2023-04-25T12:49:46;1.35;;;1.25;;
37383;SDS011;23258;49.718;11.082;2023-04-25T12:52:16;1.60;;;1.50;;
37383;SDS011;23258;49.718;11.082;2023-04-25T12:54:45;1.80;;;1.40;;
37383;SDS011;23258;49.718;11.082;2023-04-25T12:57:18;2.92;;;1.38;;
37383;SDS011;23258;49.718;11.082;2023-04-25T12:59:48;1.85;;;1.20;;
37383;SDS011;23258;49.718;11.082;2023-04-25T13:02:18;1.35;;;1.27;;
37383;SDS011;23258;49.718;11.082;2023-04-25T13:04:48;1.27;;;1.27;;
37383;SDS011;23258;49.718;11.082;2023-04-25T13:07:18;2.08;;;1.80;;
37383;SDS011;23258;49.718;11.082;2023-04-25T13:09:47;1.80;;;1.63;;
37383;SDS011;23258;49.718;11.082;2023-04-25T13:12:20;1.58;;;1.50;;
37383;SDS011;23258;49.718;11.082;2023-04-25T13:14:49;1.45;;;1.35;;
37383;SDS011;23258;49.718;11.082;2023-04-25T13:17:19;1.52;;;1.42;;
37383;SDS011;23258;49.718;11.082;2023-04-25T13:19:49;1.45;;;1.20;;
37383;SDS011;23258;49.718;11.082;2023-04-25T13:22:18;1.02;;;1.02;;
37383;SDS011;23258;49.718;11.082;2023-04-25T13:24:48;1.17;;;1.17;;
37383;SDS011;23258;49.718;11.082;2023-04-25T13:27:20;1.60;;;1.50;;
37383;SDS011;23258;49.718;11.082;2023-04-25T13:29:51;1.40;;;1.38;;
37383;SDS011;23258;49.718;11.082;2023-04-25T13:32:21;2.78;;;1.38;;
37383;SDS011;23258;49.718;11.082;2023-04-25T13:34:51;1.50;;;1.40;;
37383;SDS011;23258;49.718;11.082;2023-04-25T13:37:20;1.23;;;1.23;;
37383;SDS011;23258;49.718;11.082;2023-04-25T13:39:50;1.88;;;1.77;;
37383;SDS011;23258;49.718;11.082;2023-04-25T13:42:24;1.30;;;1.20;;
37383;SDS011;23258;49.718;11.082;2023-04-25T13:44:55;1.80;;;1.70;;
37383;SDS011;23258;49.718;11.082;2023-04-25T13:47:25;1.60;;;1.50;;
37383;SDS011;23258;49.718;11.082;2023-04-25T13:49:54;2.63;;;1.60;;
37383;SDS011;23258;49.718;11.082;2023-04-25T13:52:24;2.17;;;1.98;;
37383;SDS011;23258;49.718;11.082;2023-04-25T13:54:53;1.48;;;1.40;;
37383;SDS011;23258;49.718;11.082;2023-04-25T13:57:26;3.70;;;2.05;;
37383;SDS011;23258;49.718;11.082;2023-04-25T13:59:55;1.45;;;1.38;;
37383;SDS011;23258;49.718;11.082;2023-04-25T14:02:25;1.33;;;1.30;;
37383;SDS011;23258;49.718;11.082;2023-04-25T14:04:55;1.73;;;1.63;;
37383;SDS011;23258;49.718;11.082;2023-04-25T14:07:25;4.00;;;1.63;;
37383;SDS011;23258;49.718;11.082;2023-04-25T14:09:55;2.15;;;1.95;;
37383;SDS011;23258;49.718;11.082;2023-04-25T14:12:28;1.50;;;1.40;;
37383;SDS011;23258;49.718;11.082;2023-04-25T14:14:58;1.48;;;1.38;;
37383;SDS011;23258;49.718;11.082;2023-04-25T14:17:28;1.55;;;1.40;;
37383;SDS011;23258;49.718;11.082;2023-04-25T14:19:58;2.63;;;2.00;;
37383;SDS011;23258;49.718;11.082;2023-04-25T14:22:28;2.13;;;1.92;;
37383;SDS011;23258;49.718;11.082;2023-04-25T14:24:57;1.67;;;1.58;;
37383;SDS011;23258;49.718;11.082;2023-04-25T14:27:30;1.90;;;1.80;;
37383;SDS011;23258;49.718;11.082;2023-04-25T14:29:59;1.90;;;1.80;;
37383;SDS011;23258;49.718;11.082;2023-04-25T14:32:29;2.45;;;2.25;;
37383;SDS011;23258;49.718;11.082;2023-04-25T14:34:58;3.17;;;1.73;;
37383;SDS011;23258;49.718;11.082;2023-04-25T14:37:28;1.75;;;1.52;;
37383;SDS011;23258;49.718;11.082;2023-04-25T14:39:58;1.60;;;1.50;;
37383;SDS011;23258;49.718;11.082;2023-04-25T14:42:30;1.70;;;1.60;;
37383;SDS011;23258;49.718;11.082;2023-04-25T14:45:00;1.55;;;1.45;;
37383;SDS011;23258;49.718;11.082;2023-04-25T14:47:30;1.50;;;1.40;;
37383;SDS011;23258;49.718;11.082;2023-04-25T14:50:00;1.88;;;1.75;;
37383;SDS011;23258;49.718;11.082;2023-04-25T14:52:30;1.88;;;1.77;;
37383;SDS011;23258;49.718;11.082;2023-04-25T14:55:00;1.40;;;1.30;;
37383;SDS011;23258;49.718;11.082;2023-04-25T14:57:34;1.70;;;1.60;;
37383;SDS011;23258;49.718;11.082;2023-04-25T15:00:06;1.70;;;1.60;;
37383;SDS011;23258;49.718;11.082;2023-04-25T15:02:39;1.55;;;1.45;;
37383;SDS011;23258;49.718;11.082;2023-04-25T15:05:10;1.77;;;1.67;;
37383;SDS011;23258;49.718;11.082;2023-04-25T15:07:39;1.50;;;1.40;;
37383;SDS011;23258;49.718;11.082;2023-04-25T15:10:09;1.67;;;1.58;;
37383;SDS011;23258;49.718;11.082;2023-04-25T15:12:45;1.67;;;1.58;;